Time;durP1;ratioP1;P1;durP2;ratioP2;P2;SDS_P1;SDS_P2;PMS_P1;PMS_P2;Temp;Humidity;BMP_temperature;BMP_pressure;BME280_temperature;BME280_humidity;BME280_pressure;Samples;Min_cycle;Max_cycle;Signal;HPM_P1;HPM_P2
2022/01/08 00:01:37;;;;;;;24.88;11.05;;;;;;;;;;4924529;28;108947;-67
2022/01/08 00:04:04;;;;;;;25.00;10.88;;;;;;;;;;4909834;28;106937;-67
2022/01/08 00:06:30;;;;;;;27.92;10.90;;;;;;;;;;4909458;28;106231;-67
2022/01/08 00:08:57;;;;;;;20.42;10.70;;;;;;;;;;4904002;28;105927;-69
2022/01/08 00:11:26;;;;;;;25.92;11.45;;;;;;;;;;4909149;28;106446;-67
2022/01/08 00:13:52;;;;;;;24.40;12.38;;;;;;;;;;4923440;28;108931;-67
2022/01/08 00:16:19;;;;;;;28.02;11.75;;;;;;;;;;4905025;28;107388;-68
2022/01/08 00:18:45;;;;;;;29.77;12.05;;;;;;;;;;4904802;28;106513;-68
2022/01/08 00:21:12;;;;;;;22.98;11.40;;;;;;;;;;4909225;28;106992;-68
2022/01/08 00:23:38;;;;;;;23.05;12.57;;;;;;;;;;4920130;28;111466;-68
2022/01/08 00:26:06;;;;;;;24.83;12.10;;;;;;;;;;4908823;28;107300;-68
2022/01/08 00:28:32;;;;;;;32.30;12.23;;;;;;;;;;4905370;28;106621;-68
2022/01/08 00:30:59;;;;;;;25.98;12.93;;;;;;;;;;4906389;28;107737;-68
2022/01/08 00:33:25;;;;;;;22.60;11.73;;;;;;;;;;4908986;28;106063;-68
2022/01/08 00:35:51;;;;;;;23.55;11.52;;;;;;;;;;4908043;28;107398;-68
2022/01/08 00:38:18;;;;;;;25.17;12.80;;;;;;;;;;4912421;28;106819;-68
2022/01/08 00:40:44;;;;;;;23.83;10.95;;;;;;;;;;4916488;28;107039;-68
2022/01/08 00:43:10;;;;;;;23.95;12.00;;;;;;;;;;4897254;28;106787;-68
2022/01/08 00:45:37;;;;;;;30.63;11.13;;;;;;;;;;4908753;28;106677;-68
2022/01/08 00:48:03;;;;;;;26.88;11.05;;;;;;;;;;4904398;28;106394;-68
2022/01/08 00:50:30;;;;;;;28.98;11.90;;;;;;;;;;4902624;28;106333;-67
2022/01/08 00:52:56;;;;;;;22.83;10.40;;;;;;;;;;4903932;28;107142;-67
2022/01/08 00:55:23;;;;;;;26.88;10.85;;;;;;;;;;4909814;28;107336;-68
2022/01/08 00:57:49;;;;;;;20.85;10.90;;;;;;;;;;4901858;28;105870;-68
2022/01/08 01:00:15;;;;;;;22.40;11.43;;;;;;;;;;4903863;28;108918;-68
2022/01/08 01:02:42;;;;;;;23.77;11.00;;;;;;;;;;4908463;28;106771;-68
2022/01/08 01:05:09;;;;;;;19.05;10.18;;;;;;;;;;4909361;28;106577;-69
2022/01/08 01:07:35;;;;;;;23.23;10.52;;;;;;;;;;4910906;28;106196;-68
2022/01/08 01:10:02;;;;;;;24.13;10.25;;;;;;;;;;4907708;28;107041;-68
2022/01/08 01:12:29;;;;;;;22.75;10.73;;;;;;;;;;4908868;28;106438;-67
2022/01/08 01:15:07;;;;;;;27.05;10.90;;;;;;;;;;4909394;28;106076;-68
2022/01/08 01:17:34;;;;;;;22.08;10.27;;;;;;;;;;4916149;28;106892;-68
2022/01/08 01:20:00;;;;;;;18.42;10.15;;;;;;;;;;4910126;28;106306;-68
2022/01/08 01:22:36;;;;;;;22.25;10.38;;;;;;;;;;4909290;28;108248;-68
2022/01/08 01:25:06;;;;;;;31.27;10.15;;;;;;;;;;4907795;28;106652;-68
2022/01/08 01:28:18;;;;;;;24.13;9.73;;;;;;;;;;4908378;28;106449;-68
2022/01/08 01:30:50;;;;;;;27.42;10.45;;;;;;;;;;4907253;28;107162;-68
2022/01/08 01:41:37;;;;;;;20.58;9.50;;;;;;;;;;4914376;28;106260;-68
2022/01/08 01:49:04;;;;;;;20.52;9.10;;;;;;;;;;4908593;28;107521;-68
2022/01/08 01:51:30;;;;;;;18.33;9.40;;;;;;;;;;4909340;28;107397;-68
2022/01/08 01:53:57;;;;;;;22.50;8.88;;;;;;;;;;4910627;28;106973;-67
2022/01/08 01:56:24;;;;;;;26.05;8.93;;;;;;;;;;4911635;28;107763;-68
2022/01/08 01:58:50;;;;;;;19.77;9.25;;;;;;;;;;4908443;28;106544;-68
2022/01/08 02:01:16;;;;;;;22.92;9.55;;;;;;;;;;4927034;28;107055;-68
2022/01/08 02:03:43;;;;;;;22.02;8.05;;;;;;;;;;4910576;28;107155;-68
2022/01/08 02:06:09;;;;;;;24.25;9.43;;;;;;;;;;4908906;28;106118;-68
2022/01/08 02:08:41;;;;;;;18.15;9.52;;;;;;;;;;4908052;28;106594;-68
2022/01/08 02:11:08;;;;;;;18.80;9.13;;;;;;;;;;4909722;28;107815;-68
2022/01/08 02:13:35;;;;;;;22.48;8.85;;;;;;;;;;4909348;28;106462;-67
2022/01/08 02:16:03;;;;;;;17.40;8.75;;;;;;;;;;4925440;28;106347;-67
2022/01/08 02:18:30;;;;;;;26.50;9.00;;;;;;;;;;4909232;28;107681;-67
2022/01/08 02:21:00;;;;;;;14.63;8.77;;;;;;;;;;4923652;28;106498;-67
2022/01/08 02:23:27;;;;;;;26.38;8.52;;;;;;;;;;4911546;28;106129;-67
2022/01/08 02:26:03;;;;;;;23.25;8.65;;;;;;;;;;4905968;28;105543;-67
2022/01/08 02:28:29;;;;;;;22.45;8.90;;;;;;;;;;4905835;28;106257;-68
2022/01/08 02:30:56;;;;;;;15.45;8.52;;;;;;;;;;4910228;28;108526;-68
2022/01/08 02:33:25;;;;;;;18.10;8.65;;;;;;;;;;4907232;28;106366;-67
2022/01/08 02:35:52;;;;;;;21.88;8.88;;;;;;;;;;4925862;28;107922;-68
2022/01/08 02:38:19;;;;;;;17.33;9.15;;;;;;;;;;4907696;28;107709;-67
2022/01/08 02:40:54;;;;;;;17.92;8.20;;;;;;;;;;4919043;28;106570;-67
2022/01/08 02:43:20;;;;;;;20.40;8.80;;;;;;;;;;4903312;28;106868;-67
2022/01/08 02:45:47;;;;;;;17.75;8.48;;;;;;;;;;4909527;28;107112;-68
2022/01/08 02:48:13;;;;;;;22.63;8.80;;;;;;;;;;4907319;28;106034;-68
2022/01/08 02:50:40;;;;;;;20.92;9.05;;;;;;;;;;4925456;28;107144;-68
2022/01/08 02:53:06;;;;;;;23.55;9.18;;;;;;;;;;4906922;28;106310;-67
2022/01/08 02:55:32;;;;;;;20.50;9.30;;;;;;;;;;4909992;28;107169;-68
2022/01/08 02:57:59;;;;;;;22.48;8.82;;;;;;;;;;4909745;28;107357;-68
2022/01/08 03:00:25;;;;;;;21.02;9.30;;;;;;;;;;4907194;28;105828;-68
2022/01/08 03:02:52;;;;;;;21.08;9.07;;;;;;;;;;4922230;28;107285;-68
2022/01/08 03:05:19;;;;;;;24.02;8.80;;;;;;;;;;4910182;28;106272;-67
2022/01/08 03:07:46;;;;;;;20.30;9.07;;;;;;;;;;4908830;28;106274;-68
2022/01/08 03:10:16;;;;;;;23.85;9.48;;;;;;;;;;4914104;28;107029;-68
2022/01/08 03:12:43;;;;;;;20.17;9.30;;;;;;;;;;4903732;28;106368;-68
2022/01/08 03:15:13;;;;;;;23.90;9.57;;;;;;;;;;4907798;28;107115;-68
2022/01/08 03:17:40;;;;;;;20.80;9.50;;;;;;;;;;4903797;28;107530;-68
2022/01/08 03:20:11;;;;;;;17.60;9.23;;;;;;;;;;4908067;28;106562;-68
2022/01/08 03:22:38;;;;;;;24.83;8.45;;;;;;;;;;4909059;28;107136;-68
2022/01/08 03:25:05;;;;;;;17.80;8.00;;;;;;;;;;4906167;28;106561;-67
2022/01/08 03:27:31;;;;;;;19.48;8.55;;;;;;;;;;4908600;28;106124;-68
2022/01/08 03:29:58;;;;;;;19.88;7.70;;;;;;;;;;4900005;28;107366;-67
2022/01/08 03:32:24;;;;;;;19.17;9.00;;;;;;;;;;4909336;28;106291;-68
2022/01/08 03:34:51;;;;;;;21.05;7.80;;;;;;;;;;4907044;28;106179;-68
2022/01/08 03:37:18;;;;;;;13.85;8.23;;;;;;;;;;4915871;28;106642;-68
2022/01/08 03:39:44;;;;;;;18.10;8.18;;;;;;;;;;4905051;28;106660;-68
2022/01/08 03:42:10;;;;;;;13.35;6.63;;;;;;;;;;4901390;28;107151;-67
2022/01/08 03:44:37;;;;;;;21.65;6.88;;;;;;;;;;4909473;28;108138;-67
2022/01/08 03:47:53;;;;;;;17.10;6.90;;;;;;;;;;4907382;28;106244;-68
2022/01/08 03:49:57;;;;;;;18.67;7.78;;;;;;;;;;4903130;28;107862;-67
2022/01/08 03:52:24;;;;;;;17.70;6.22;;;;;;;;;;4912757;28;106828;-67
2022/01/08 03:54:50;;;;;;;19.35;7.60;;;;;;;;;;4905017;28;106792;-67
2022/01/08 03:57:17;;;;;;;22.25;6.95;;;;;;;;;;4906476;28;107353;-67
2022/01/08 03:59:43;;;;;;;17.55;8.48;;;;;;;;;;4908942;28;106168;-69
2022/01/08 04:02:09;;;;;;;16.98;7.70;;;;;;;;;;4902671;28;108717;-69
2022/01/08 04:04:36;;;;;;;21.40;7.63;;;;;;;;;;4903242;28;108052;-67
2022/01/08 04:07:03;;;;;;;18.08;7.63;;;;;;;;;;4908685;28;106334;-67
2022/01/08 04:09:29;;;;;;;16.90;7.45;;;;;;;;;;4909266;28;107572;-67
2022/01/08 04:11:56;;;;;;;22.13;7.90;;;;;;;;;;4910901;28;110982;-67
2022/01/08 04:14:25;;;;;;;19.15;8.05;;;;;;;;;;4903641;28;107150;-67
2022/01/08 04:16:53;;;;;;;22.63;8.53;;;;;;;;;;4924344;28;108216;-67
2022/01/08 04:19:19;;;;;;;17.65;8.30;;;;;;;;;;4902911;28;107428;-67
2022/01/08 04:22:10;;;;;;;18.95;7.95;;;;;;;;;;4923787;28;106012;-67
2022/01/08 04:24:37;;;;;;;18.70;8.20;;;;;;;;;;4907626;28;106877;-67
2022/01/08 04:27:04;;;;;;;20.52;7.47;;;;;;;;;;4904488;28;106475;-67
2022/01/08 04:29:31;;;;;;;18.73;8.10;;;;;;;;;;4906351;28;108481;-67
2022/01/08 04:31:57;;;;;;;15.05;7.72;;;;;;;;;;4903592;28;106610;-67
2022/01/08 04:34:23;;;;;;;15.50;7.25;;;;;;;;;;4911598;28;105922;-67
2022/01/08 04:36:50;;;;;;;22.05;7.25;;;;;;;;;;4907883;28;107301;-68
2022/01/08 04:39:16;;;;;;;14.82;7.38;;;;;;;;;;4902094;28;106838;-67
2022/01/08 04:41:43;;;;;;;17.40;7.65;;;;;;;;;;4907419;28;108720;-67
2022/01/08 04:44:10;;;;;;;14.55;7.32;;;;;;;;;;4900546;28;106973;-67
2022/01/08 04:46:38;;;;;;;21.50;7.60;;;;;;;;;;4908478;28;106120;-67
2022/01/08 04:49:05;;;;;;;20.48;7.45;;;;;;;;;;4909464;28;106826;-67
2022/01/08 04:51:31;;;;;;;21.13;7.65;;;;;;;;;;4907697;28;107125;-67
2022/01/08 04:53:58;;;;;;;17.98;7.50;;;;;;;;;;4908441;28;106970;-67
2022/01/08 04:56:24;;;;;;;22.27;7.22;;;;;;;;;;4909772;28;106762;-67
2022/01/08 04:58:50;;;;;;;15.90;7.22;;;;;;;;;;4906449;28;106270;-67
2022/01/08 05:01:17;;;;;;;13.75;6.57;;;;;;;;;;4908451;28;107181;-67
2022/01/08 05:03:44;;;;;;;14.13;6.78;;;;;;;;;;4908665;28;107463;-68
2022/01/08 05:06:10;;;;;;;14.15;7.20;;;;;;;;;;4903520;28;105487;-68
2022/01/08 05:08:37;;;;;;;11.45;6.95;;;;;;;;;;4907619;28;106997;-67
2022/01/08 05:11:03;;;;;;;20.60;8.52;;;;;;;;;;4906223;28;108154;-67
2022/01/08 05:13:30;;;;;;;13.65;6.63;;;;;;;;;;4903256;28;106171;-67
2022/01/08 05:15:57;;;;;;;14.23;6.65;;;;;;;;;;4909931;28;107932;-67
2022/01/08 05:18:24;;;;;;;19.38;7.05;;;;;;;;;;4905897;28;106646;-68
2022/01/08 05:21:08;;;;;;;13.25;6.35;;;;;;;;;;4905702;28;107258;-67
2022/01/08 05:23:34;;;;;;;20.40;6.40;;;;;;;;;;4908988;28;107334;-68
2022/01/08 05:26:00;;;;;;;14.38;7.03;;;;;;;;;;4906950;28;107694;-68
2022/01/08 05:28:27;;;;;;;23.02;6.97;;;;;;;;;;4904960;28;106565;-68
2022/01/08 05:30:53;;;;;;;13.43;7.00;;;;;;;;;;4906014;28;106508;-68
2022/01/08 05:33:20;;;;;;;13.52;6.57;;;;;;;;;;4904908;28;106003;-68
2022/01/08 05:35:46;;;;;;;16.35;6.05;;;;;;;;;;4906976;28;107172;-68
2022/01/08 05:38:12;;;;;;;14.93;6.15;;;;;;;;;;4904671;28;106642;-68
2022/01/08 05:40:39;;;;;;;26.20;6.03;;;;;;;;;;4907076;28;106079;-68
2022/01/08 05:43:05;;;;;;;15.23;6.38;;;;;;;;;;4904441;28;107636;-68
2022/01/08 05:45:32;;;;;;;14.88;5.45;;;;;;;;;;4907770;28;105908;-68
2022/01/08 05:47:58;;;;;;;22.08;5.80;;;;;;;;;;4908561;28;106826;-68
2022/01/08 05:50:25;;;;;;;19.88;6.50;;;;;;;;;;4907957;28;107317;-69
2022/01/08 05:52:51;;;;;;;14.15;5.45;;;;;;;;;;4912071;28;106517;-69
2022/01/08 05:55:17;;;;;;;12.32;5.75;;;;;;;;;;4905853;28;107691;-68
2022/01/08 05:57:44;;;;;;;14.40;5.38;;;;;;;;;;4907188;28;107655;-68
2022/01/08 06:00:10;;;;;;;13.32;5.25;;;;;;;;;;4914392;28;105927;-69
2022/01/08 06:02:37;;;;;;;16.23;5.57;;;;;;;;;;4905656;28;107747;-69
2022/01/08 06:05:07;;;;;;;17.35;5.80;;;;;;;;;;4908637;28;106539;-68
2022/01/08 06:07:34;;;;;;;14.80;5.82;;;;;;;;;;4911807;28;106870;-68
2022/01/08 06:10:00;;;;;;;14.15;5.55;;;;;;;;;;4902785;28;107710;-68
2022/01/08 06:12:26;;;;;;;16.45;5.03;;;;;;;;;;4904909;28;105575;-68
2022/01/08 06:14:53;;;;;;;18.60;5.28;;;;;;;;;;4908593;28;108142;-68
2022/01/08 06:17:19;;;;;;;17.45;5.93;;;;;;;;;;4926795;28;106709;-68
2022/01/08 06:19:46;;;;;;;20.33;6.10;;;;;;;;;;4907195;28;106185;-68
2022/01/08 06:22:13;;;;;;;14.48;6.03;;;;;;;;;;4909272;28;107147;-68
2022/01/08 06:24:39;;;;;;;14.25;5.57;;;;;;;;;;4911375;28;105586;-69
2022/01/08 06:27:06;;;;;;;20.00;6.05;;;;;;;;;;4906278;28;107888;-68
2022/01/08 06:29:37;;;;;;;10.30;5.20;;;;;;;;;;4906625;28;107402;-68
2022/01/08 06:32:04;;;;;;;20.85;6.20;;;;;;;;;;4912321;28;106345;-68
2022/01/08 06:34:30;;;;;;;16.58;6.43;;;;;;;;;;4909059;28;106874;-68
2022/01/08 06:36:56;;;;;;;23.23;7.10;;;;;;;;;;4900492;28;107016;-68
2022/01/08 06:39:23;;;;;;;19.65;7.30;;;;;;;;;;4905446;28;106640;-68
2022/01/08 06:41:49;;;;;;;15.85;8.00;;;;;;;;;;4911222;28;106790;-68
2022/01/08 06:44:16;;;;;;;19.63;7.75;;;;;;;;;;4909764;28;107647;-68
2022/01/08 06:46:42;;;;;;;21.80;8.82;;;;;;;;;;4903270;28;107259;-68
2022/01/08 06:49:08;;;;;;;21.13;8.32;;;;;;;;;;4910428;28;107860;-69
2022/01/08 06:51:35;;;;;;;22.90;8.63;;;;;;;;;;4905909;28;106011;-68
2022/01/08 06:54:01;;;;;;;19.95;7.18;;;;;;;;;;4911232;28;107169;-68
2022/01/08 06:56:28;;;;;;;14.88;5.60;;;;;;;;;;4903796;28;107902;-68
2022/01/08 06:58:55;;;;;;;17.98;5.43;;;;;;;;;;4907962;28;106010;-68
2022/01/08 07:01:21;;;;;;;18.05;5.35;;;;;;;;;;4909670;28;106765;-68
2022/01/08 07:03:47;;;;;;;20.23;5.38;;;;;;;;;;4906835;28;106917;-68
2022/01/08 07:06:14;;;;;;;17.98;4.95;;;;;;;;;;4909078;28;106224;-69
2022/01/08 07:08:40;;;;;;;13.88;4.47;;;;;;;;;;4902414;28;106560;-68
2022/01/08 07:11:07;;;;;;;10.05;4.55;;;;;;;;;;4907812;28;107509;-69
2022/01/08 07:13:33;;;;;;;16.48;4.75;;;;;;;;;;4907696;28;107022;-68
2022/01/08 07:16:00;;;;;;;22.75;5.30;;;;;;;;;;4906417;28;107234;-68
2022/01/08 07:18:26;;;;;;;16.58;5.35;;;;;;;;;;4906558;28;105717;-69
2022/01/08 07:20:54;;;;;;;15.45;5.45;;;;;;;;;;4910188;28;107432;-67
2022/01/08 07:23:21;;;;;;;20.98;5.53;;;;;;;;;;4905965;28;106381;-68
2022/01/08 07:25:47;;;;;;;12.60;4.70;;;;;;;;;;4920779;28;106020;-68
2022/01/08 07:28:14;;;;;;;17.05;4.45;;;;;;;;;;4909249;28;107450;-68
2022/01/08 07:30:40;;;;;;;15.75;5.05;;;;;;;;;;4908077;28;106331;-68
2022/01/08 07:33:06;;;;;;;15.98;5.55;;;;;;;;;;4907648;28;107473;-68
2022/01/08 07:35:33;;;;;;;18.85;6.00;;;;;;;;;;4908329;28;106501;-68
2022/01/08 07:37:59;;;;;;;11.88;5.65;;;;;;;;;;4902608;28;105995;-68
2022/01/08 07:40:26;;;;;;;20.85;5.80;;;;;;;;;;4906101;28;106686;-68
2022/01/08 07:42:52;;;;;;;17.63;5.40;;;;;;;;;;4907801;28;106900;-68
2022/01/08 07:45:19;;;;;;;18.20;5.60;;;;;;;;;;4904825;28;106210;-68
2022/01/08 07:47:46;;;;;;;24.27;6.28;;;;;;;;;;4909720;28;106172;-68
2022/01/08 07:50:12;;;;;;;19.50;6.55;;;;;;;;;;4910682;28;108029;-68
2022/01/08 07:52:39;;;;;;;17.23;6.68;;;;;;;;;;4908078;28;106990;-68
2022/01/08 07:55:06;;;;;;;29.98;7.68;;;;;;;;;;4910433;28;106406;-67
2022/01/08 07:57:32;;;;;;;18.17;6.38;;;;;;;;;;4907560;28;106339;-68
2022/01/08 07:59:58;;;;;;;25.30;7.75;;;;;;;;;;4909555;28;107308;-68
2022/01/08 08:02:25;;;;;;;21.83;7.55;;;;;;;;;;4908487;28;108569;-68
2022/01/08 08:04:52;;;;;;;21.67;8.05;;;;;;;;;;4906326;28;106076;-68
2022/01/08 08:07:36;;;;;;;19.48;8.50;;;;;;;;;;4903989;28;106634;-68
2022/01/08 08:10:08;;;;;;;23.00;7.78;;;;;;;;;;4922775;28;108783;-68
2022/01/08 08:12:34;;;;;;;27.05;8.73;;;;;;;;;;4906851;28;106140;-67
2022/01/08 08:15:00;;;;;;;28.20;9.32;;;;;;;;;;4909170;28;107483;-67
2022/01/08 08:17:27;;;;;;;25.13;9.43;;;;;;;;;;4905211;28;106891;-68
2022/01/08 08:19:53;;;;;;;23.30;9.48;;;;;;;;;;4909025;28;107188;-67
2022/01/08 08:22:20;;;;;;;29.27;10.23;;;;;;;;;;4899224;28;107372;-67
2022/01/08 08:24:46;;;;;;;24.55;9.70;;;;;;;;;;4904914;28;106219;-67
2022/01/08 08:27:13;;;;;;;27.50;10.07;;;;;;;;;;4903921;28;107252;-66
2022/01/08 08:29:40;;;;;;;24.75;10.13;;;;;;;;;;4907908;28;107423;-66
2022/01/08 08:32:07;;;;;;;30.42;10.15;;;;;;;;;;4911784;28;105959;-65
2022/01/08 08:34:33;;;;;;;31.52;11.75;;;;;;;;;;4922708;28;107415;-66
2022/01/08 08:37:00;;;;;;;31.27;11.50;;;;;;;;;;4902867;28;106369;-66
2022/01/08 08:39:26;;;;;;;27.02;11.35;;;;;;;;;;4908291;28;106551;-66
2022/01/08 08:41:54;;;;;;;29.30;11.73;;;;;;;;;;4907101;28;109567;-66
2022/01/08 08:44:20;;;;;;;26.70;11.65;;;;;;;;;;4909454;28;105908;-66
2022/01/08 08:46:46;;;;;;;33.90;12.38;;;;;;;;;;4901357;28;106183;-66
2022/01/08 08:49:13;;;;;;;34.30;11.98;;;;;;;;;;4904561;28;107813;-66
2022/01/08 08:51:39;;;;;;;28.58;11.25;;;;;;;;;;4907155;28;106298;-66
2022/01/08 08:54:05;;;;;;;26.98;12.02;;;;;;;;;;4911636;28;106109;-66
2022/01/08 08:56:32;;;;;;;32.60;12.43;;;;;;;;;;4909142;28;105935;-67
2022/01/08 08:58:58;;;;;;;28.63;12.32;;;;;;;;;;4903837;28;106885;-66
2022/01/08 09:01:26;;;;;;;33.72;12.23;;;;;;;;;;4919881;28;107993;-67
2022/01/08 09:03:53;;;;;;;33.00;12.82;;;;;;;;;;4907245;28;106723;-67
2022/01/08 09:06:20;;;;;;;31.10;13.10;;;;;;;;;;4907883;28;106878;-68
2022/01/08 09:08:48;;;;;;;28.08;12.50;;;;;;;;;;4900121;28;107236;-70
2022/01/08 09:11:14;;;;;;;27.05;13.18;;;;;;;;;;4900048;28;106215;-67
2022/01/08 09:13:40;;;;;;;33.17;13.30;;;;;;;;;;4905863;28;107300;-69
2022/01/08 09:16:07;;;;;;;27.50;12.27;;;;;;;;;;4908163;28;106833;-69
2022/01/08 09:18:33;;;;;;;32.75;14.40;;;;;;;;;;4907192;28;108588;-67
2022/01/08 09:21:00;;;;;;;31.83;13.50;;;;;;;;;;4908330;28;106669;-67
2022/01/08 09:23:26;;;;;;;24.85;12.82;;;;;;;;;;4908592;28;105772;-67
2022/01/08 09:25:52;;;;;;;30.65;13.18;;;;;;;;;;4904721;28;106385;-68
2022/01/08 09:28:19;;;;;;;29.67;13.50;;;;;;;;;;4907099;28;106548;-68
2022/01/08 09:30:46;;;;;;;36.42;12.80;;;;;;;;;;4910035;28;107257;-68
2022/01/08 09:33:12;;;;;;;30.02;14.45;;;;;;;;;;4905755;28;108997;-68
2022/01/08 09:35:39;;;;;;;30.75;14.13;;;;;;;;;;4906911;28;108354;-68
2022/01/08 09:38:05;;;;;;;38.40;14.35;;;;;;;;;;4926264;28;106237;-68
2022/01/08 09:40:32;;;;;;;35.22;13.82;;;;;;;;;;4906043;28;109086;-69
2022/01/08 09:42:58;;;;;;;30.23;13.90;;;;;;;;;;4907679;28;106824;-67
2022/01/08 09:45:24;;;;;;;28.88;13.40;;;;;;;;;;4910991;28;106791;-67
2022/01/08 09:47:52;;;;;;;31.42;14.73;;;;;;;;;;4904697;28;107701;-67
2022/01/08 09:50:18;;;;;;;28.02;13.25;;;;;;;;;;4901621;28;107544;-68
2022/01/08 09:52:45;;;;;;;28.55;13.75;;;;;;;;;;4910248;28;106124;-68
2022/01/08 09:55:11;;;;;;;38.35;14.57;;;;;;;;;;4904314;28;106716;-67
2022/01/08 09:57:38;;;;;;;31.23;13.35;;;;;;;;;;4906230;28;107698;-67
2022/01/08 10:00:11;;;;;;;31.38;14.30;;;;;;;;;;4914127;28;107090;-69
2022/01/08 10:02:38;;;;;;;30.75;14.25;;;;;;;;;;4907299;28;105585;-68
2022/01/08 10:05:12;;;;;;;29.55;14.23;;;;;;;;;;4909694;28;107027;-67
2022/01/08 10:07:40;;;;;;;31.35;14.48;;;;;;;;;;4926259;28;107552;-68
2022/01/08 10:10:15;;;;;;;36.80;15.07;;;;;;;;;;4908997;28;106672;-68
2022/01/08 10:12:43;;;;;;;31.33;14.52;;;;;;;;;;4908674;28;108647;-69
2022/01/08 10:17:56;;;;;;;27.52;13.70;;;;;;;;;;4896035;28;107782;-67
2022/01/08 10:20:33;;;;;;;27.50;13.77;;;;;;;;;;4911613;28;107128;-68
2022/01/08 10:23:10;;;;;;;32.13;15.23;;;;;;;;;;4900610;28;106184;-67
2022/01/08 10:25:39;;;;;;;29.58;14.38;;;;;;;;;;4904263;28;107331;-67
2022/01/08 10:28:06;;;;;;;34.08;14.95;;;;;;;;;;4908517;28;106510;-67
2022/01/08 10:30:32;;;;;;;32.50;15.77;;;;;;;;;;4910124;28;106190;-68
2022/01/08 10:32:59;;;;;;;28.92;14.73;;;;;;;;;;4920969;28;107388;-68
2022/01/08 10:35:48;;;;;;;40.13;14.43;;;;;;;;;;4901739;28;107666;-67
2022/01/08 10:38:14;;;;;;;38.30;15.57;;;;;;;;;;4904285;28;105540;-67
2022/01/08 10:40:41;;;;;;;34.35;16.85;;;;;;;;;;4902979;28;107484;-69
2022/01/08 10:43:25;;;;;;;37.67;15.48;;;;;;;;;;4911728;28;108222;-69
2022/01/08 10:45:53;;;;;;;33.25;14.85;;;;;;;;;;4909765;28;108288;-67
2022/01/08 10:48:27;;;;;;;36.85;14.27;;;;;;;;;;4904658;28;107755;-67
2022/01/08 10:50:53;;;;;;;34.75;15.57;;;;;;;;;;4905021;28;105748;-68
2022/01/08 10:53:19;;;;;;;34.10;14.45;;;;;;;;;;4919109;28;107820;-68
2022/01/08 10:55:46;;;;;;;27.35;12.68;;;;;;;;;;4905186;28;107812;-67
2022/01/08 10:58:12;;;;;;;30.98;12.60;;;;;;;;;;4907962;28;106990;-68
2022/01/08 11:00:39;;;;;;;26.27;11.27;;;;;;;;;;4905725;28;107177;-67
2022/01/08 11:03:06;;;;;;;30.55;11.57;;;;;;;;;;4907236;28;107582;-66
2022/01/08 11:05:33;;;;;;;26.88;11.52;;;;;;;;;;4909020;28;107025;-67
2022/01/08 11:08:13;;;;;;;28.15;11.07;;;;;;;;;;4907457;28;108546;-68
2022/01/08 11:10:42;;;;;;;22.92;10.75;;;;;;;;;;4906292;28;106196;-69
2022/01/08 11:13:13;;;;;;;30.65;10.63;;;;;;;;;;4912437;28;108128;-70
2022/01/08 11:15:51;;;;;;;28.05;11.07;;;;;;;;;;4909932;28;107810;-69
2022/01/08 11:18:19;;;;;;;23.13;10.52;;;;;;;;;;4906294;28;106067;-68
2022/01/08 11:20:52;;;;;;;24.40;10.25;;;;;;;;;;4906682;28;107758;-68
2022/01/08 11:23:20;;;;;;;23.23;10.57;;;;;;;;;;4904759;28;107568;-68
2022/01/08 11:25:48;;;;;;;27.27;11.70;;;;;;;;;;4907253;28;105696;-67
2022/01/08 11:28:16;;;;;;;28.75;12.70;;;;;;;;;;4912414;28;106837;-67
2022/01/08 11:30:44;;;;;;;23.90;10.52;;;;;;;;;;4906970;28;107250;-68
2022/01/08 11:33:18;;;;;;;29.70;11.85;;;;;;;;;;4907271;28;107475;-68
2022/01/08 11:35:45;;;;;;;24.08;10.20;;;;;;;;;;4906322;28;107216;-68
2022/01/08 11:38:14;;;;;;;32.60;11.63;;;;;;;;;;4906996;28;109852;-68
2022/01/08 11:40:41;;;;;;;29.98;12.57;;;;;;;;;;4908589;28;107369;-68
2022/01/08 11:43:10;;;;;;;34.17;12.55;;;;;;;;;;4904110;28;107658;-68
2022/01/08 11:45:38;;;;;;;26.25;11.68;;;;;;;;;;4905519;28;106248;-67
2022/01/08 11:48:06;;;;;;;32.60;12.02;;;;;;;;;;4900088;28;106727;-68
2022/01/08 11:50:33;;;;;;;27.80;11.80;;;;;;;;;;4907730;28;108441;-68
2022/01/08 11:53:17;;;;;;;22.27;10.32;;;;;;;;;;4903761;28;107574;-68
2022/01/08 11:55:45;;;;;;;24.65;11.60;;;;;;;;;;4919430;28;108260;-67
2022/01/08 11:58:12;;;;;;;24.90;11.07;;;;;;;;;;4907447;28;106399;-67
2022/01/08 12:00:45;;;;;;;23.25;11.43;;;;;;;;;;4903996;28;106723;-67
2022/01/08 12:03:18;;;;;;;27.67;11.00;;;;;;;;;;4909110;28;106966;-68
2022/01/08 12:05:45;;;;;;;27.00;10.75;;;;;;;;;;4906109;28;106243;-67
2022/01/08 12:08:14;;;;;;;25.75;10.60;;;;;;;;;;4906002;28;109681;-67
2022/01/08 12:10:59;;;;;;;28.17;10.98;;;;;;;;;;4909035;28;107413;-67
2022/01/08 12:13:45;;;;;;;32.75;11.48;;;;;;;;;;4910384;28;105668;-67
2022/01/08 12:16:30;;;;;;;27.45;11.38;;;;;;;;;;4903660;28;108042;-67
2022/01/08 12:18:56;;;;;;;29.90;11.15;;;;;;;;;;4921281;28;106195;-67
2022/01/08 12:21:37;;;;;;;23.95;11.10;;;;;;;;;;4906808;28;106773;-68
2022/01/08 12:24:30;;;;;;;22.80;10.80;;;;;;;;;;4903441;28;106689;-66
2022/01/08 12:26:59;;;;;;;33.42;10.70;;;;;;;;;;4903676;28;107764;-67
2022/01/08 12:29:39;;;;;;;23.88;10.60;;;;;;;;;;4918192;28;106293;-69
2022/01/08 12:32:35;;;;;;;28.50;10.85;;;;;;;;;;4904176;28;108081;-68
2022/01/08 12:35:03;;;;;;;32.72;10.85;;;;;;;;;;4901375;28;106021;-69
2022/01/08 12:37:36;;;;;;;26.02;10.00;;;;;;;;;;4905506;28;107340;-67
2022/01/08 12:40:03;;;;;;;28.45;10.43;;;;;;;;;;4903888;28;106433;-66
2022/01/08 12:42:31;;;;;;;24.08;9.65;;;;;;;;;;4908389;28;107956;-67
2022/01/08 12:45:03;;;;;;;24.25;9.95;;;;;;;;;;4904584;28;107914;-66
2022/01/08 12:47:42;;;;;;;25.65;9.38;;;;;;;;;;4912077;28;106298;-67
2022/01/08 12:50:19;;;;;;;33.38;10.25;;;;;;;;;;4901101;28;107395;-67
2022/01/08 12:53:04;;;;;;;23.05;9.23;;;;;;;;;;4899069;28;107851;-67
2022/01/08 12:55:40;;;;;;;24.45;9.35;;;;;;;;;;4898645;28;107248;-69
2022/01/08 12:58:14;;;;;;;23.83;10.07;;;;;;;;;;4906723;28;107214;-66
2022/01/08 13:00:54;;;;;;;25.08;9.30;;;;;;;;;;4905441;28;106257;-67
2022/01/08 13:03:20;;;;;;;;;;;;;;;;;;4909207;28;106873;-67
2022/01/08 13:05:47;;;;;;;22.13;8.57;;;;;;;;;;4909986;28;135911;-67
2022/01/08 13:08:20;;;;;;;20.90;7.70;;;;;;;;;;4910825;28;106336;-68
2022/01/08 13:10:47;;;;;;;20.58;8.52;;;;;;;;;;4902428;28;106364;-66
2022/01/08 13:13:14;;;;;;;19.55;7.53;;;;;;;;;;4906850;28;106395;-67
2022/01/08 13:15:40;;;;;;;19.50;7.70;;;;;;;;;;4919355;28;106462;-66
2022/01/08 13:18:19;;;;;;;15.75;7.38;;;;;;;;;;4903499;28;108900;-67
2022/01/08 13:20:46;;;;;;;18.75;7.03;;;;;;;;;;4908548;28;108229;-67
2022/01/08 13:23:13;;;;;;;19.35;7.65;;;;;;;;;;4909895;28;106549;-67
2022/01/08 13:25:40;;;;;;;19.88;6.88;;;;;;;;;;4909871;28;107010;-67
2022/01/08 13:28:06;;;;;;;17.15;7.45;;;;;;;;;;4911176;28;105947;-67
2022/01/08 13:30:33;;;;;;;20.10;6.32;;;;;;;;;;4910236;28;107391;-67
2022/01/08 13:33:00;;;;;;;15.35;6.40;;;;;;;;;;4907302;28;107639;-67
2022/01/08 13:35:27;;;;;;;18.17;6.18;;;;;;;;;;4906612;28;108215;-66
2022/01/08 13:37:53;;;;;;;21.77;6.28;;;;;;;;;;4910554;28;107099;-67
2022/01/08 13:40:24;;;;;;;15.20;5.75;;;;;;;;;;4910984;28;108915;-67
2022/01/08 13:42:51;;;;;;;11.95;4.65;;;;;;;;;;4913737;28;106027;-67
2022/01/08 13:45:20;;;;;;;10.90;4.95;;;;;;;;;;4910909;28;106506;-67
2022/01/08 13:47:48;;;;;;;15.63;5.43;;;;;;;;;;4909922;28;106327;-67
2022/01/08 13:50:28;;;;;;;14.10;4.85;;;;;;;;;;4908212;28;108728;-67
2022/01/08 13:52:58;;;;;;;12.85;4.95;;;;;;;;;;4905931;28;106422;-67
2022/01/08 13:55:40;;;;;;;13.18;5.53;;;;;;;;;;4905197;28;107151;-67
2022/01/08 13:58:07;;;;;;;11.20;5.30;;;;;;;;;;4907717;28;107585;-68
2022/01/08 14:00:38;;;;;;;13.02;4.95;;;;;;;;;;4910760;28;107375;-67
2022/01/08 14:03:23;;;;;;;18.55;6.25;;;;;;;;;;4909477;28;106170;-67
2022/01/08 14:05:50;;;;;;;10.35;4.32;;;;;;;;;;4907661;28;106505;-67
2022/01/08 14:08:17;;;;;;;11.63;4.57;;;;;;;;;;4907373;28;106173;-67
2022/01/08 14:10:44;;;;;;;14.98;4.40;;;;;;;;;;4906452;28;106827;-67
2022/01/08 14:13:12;;;;;;;12.23;4.22;;;;;;;;;;4906061;28;107959;-67
2022/01/08 14:15:41;;;;;;;9.30;4.10;;;;;;;;;;4903105;28;106668;-68
2022/01/08 14:18:08;;;;;;;11.30;4.45;;;;;;;;;;4911661;28;106428;-68
2022/01/08 14:20:34;;;;;;;11.00;3.80;;;;;;;;;;4905747;28;106588;-68
2022/01/08 14:23:18;;;;;;;10.07;3.47;;;;;;;;;;4904800;28;105724;-67
2022/01/08 14:25:45;;;;;;;9.60;4.28;;;;;;;;;;4908564;28;107571;-67
2022/01/08 14:28:17;;;;;;;9.32;3.65;;;;;;;;;;4903822;28;106711;-66
2022/01/08 14:30:44;;;;;;;8.75;3.92;;;;;;;;;;4907626;28;107063;-67
2022/01/08 14:33:11;;;;;;;9.05;3.70;;;;;;;;;;4921042;28;109037;-68
2022/01/08 14:35:37;;;;;;;8.02;3.40;;;;;;;;;;4907275;28;106466;-68
2022/01/08 14:38:04;;;;;;;8.48;3.60;;;;;;;;;;4909774;28;106731;-67